Time,TemperatureF,DewpointF,PressureIn,WindDirection,WindDirectionDegrees,WindSpeedMPH,WindSpeedGustMPH,Humidity,HourlyPrecipIn,Conditions,Clouds,dailyrainin,SoftwareType,DateUTC
2013-04-25 00:00:00,68.0,0.0,29.87,North,361,3.0,7.0,13,-99.99,,,-99.99,,2013-04-25 07:00:00,
2013-04-25 00:08:00,68.0,0.0,29.87,North,361,0.0,5.0,16,-99.99,,,-99.99,,2013-04-25 07:08:00,
2013-04-25 00:16:00,68.0,0.0,29.87,NNW,340,3.0,8.0,12,-99.99,,,-99.99,,2013-04-25 07:16:00,
2013-04-25 00:24:00,67.0,0.0,29.87,West,275,3.0,8.0,15,-99.99,,,-99.99,,2013-04-25 07:24:00,
2013-04-25 00:32:00,67.0,0.0,29.87,NNW,327,3.0,3.0,13,-99.99,,,-99.99,,2013-04-25 07:32:00,
2013-04-25 00:40:00,68.0,0.0,29.87,NNW,328,0.0,5.0,13,-99.99,,,-99.99,,2013-04-25 07:40:00,
2013-04-25 00:48:00,67.0,0.0,29.88,NNW,335,5.0,6.0,14,-99.99,,,-99.99,,2013-04-25 07:48:00,
2013-04-25 00:56:00,66.0,0.0,29.87,North,361,7.0,7.0,14,-99.99,,,-99.99,,2013-04-25 07:56:00,
2013-04-25 01:04:00,66.0,0.0,29.87,NNW,341,6.0,8.0,14,-99.99,,,-99.99,,2013-04-25 08:04:00,
2013-04-25 01:12:00,66.0,0.0,29.87,NNW,348,6.0,9.0,13,-99.99,,,-99.99,,2013-04-25 08:12:00,
2013-04-25 01:20:00,65.0,0.0,29.87,NW,322,6.0,9.0,13,-99.99,,,-99.99,,2013-04-25 08:20:00,
2013-04-25 01:28:00,65.0,0.0,29.87,NW,316,6.0,7.0,14,-99.99,,,-99.99,,2013-04-25 08:28:00,
2013-04-25 01:36:00,65.0,0.0,29.87,NNW,330,6.0,8.0,13,-99.99,,,-99.99,,2013-04-25 08:36:00,
2013-04-25 01:44:00,65.0,0.0,29.87,North,361,6.0,8.0,13,-99.99,,,-99.99,,2013-04-25 08:44:00,
2013-04-25 01:52:00,63.0,0.0,29.87,North,361,6.0,8.0,14,-99.99,,,-99.99,,2013-04-25 08:52:00,
2013-04-25 02:00:00,63.0,0.0,29.87,NNW,347,7.0,8.0,14,-99.99,,,-99.99,,2013-04-25 09:00:00,
2013-04-25 02:08:00,64.0,0.0,29.87,North,361,6.0,8.0,14,-99.99,,,-99.99,,2013-04-25 09:08:00,
2013-04-25 02:16:00,64.0,0.0,29.87,North,361,3.0,7.0,14,-99.99,,,-99.99,,2013-04-25 09:16:00,
2013-04-25 02:24:00,64.0,0.0,29.86,NNE,28,2.0,5.0,14,-99.99,,,-99.99,,2013-04-25 09:24:00,
2013-04-25 02:32:00,64.0,0.0,29.86,NE,49,3.0,5.0,15,-99.99,,,-99.99,,2013-04-25 09:32:00,
2013-04-25 02:40:00,64.0,0.0,29.86,NNE,33,2.0,5.0,15,-99.99,,,-99.99,,2013-04-25 09:40:00,
2013-04-25 02:48:00,64.0,0.0,29.86,NE,45,2.0,5.0,17,-99.99,,,-99.99,,2013-04-25 09:48:00,
2013-04-25 02:56:00,64.0,0.0,29.86,NE,38,3.0,6.0,14,-99.99,,,-99.99,,2013-04-25 09:56:00,
2013-04-25 03:04:00,64.0,0.0,29.86,ENE,59,5.0,6.0,14,-99.99,,,-99.99,,2013-04-25 10:04:00,
2013-04-25 03:12:00,64.0,0.0,29.86,North,0,2.0,5.0,14,-99.99,,,-99.99,,2013-04-25 10:12:00,
2013-04-25 03:20:00,65.0,0.0,29.86,North,4,2.0,5.0,14,-99.99,,,-99.99,,2013-04-25 10:20:00,
2013-04-25 03:28:00,65.0,0.0,29.86,North,361,3.0,5.0,14,-99.99,,,-99.99,,2013-04-25 10:28:00,
2013-04-25 03:36:00,64.0,0.0,29.86,NNE,14,2.0,3.0,14,-99.99,,,-99.99,,2013-04-25 10:36:00,
2013-04-25 03:44:00,64.0,0.0,29.86,NE,40,3.0,5.0,15,-99.99,,,-99.99,,2013-04-25 10:44:00,
2013-04-25 03:52:00,63.0,0.0,29.86,NE,43,5.0,7.0,15,-99.99,,,-99.99,,2013-04-25 10:52:00,
2013-04-25 04:00:00,63.0,0.0,29.86,NE,38,5.0,7.0,15,-99.99,,,-99.99,,2013-04-25 11:00:00,
2013-04-25 04:08:00,62.0,0.0,29.86,NE,41,5.0,7.0,15,-99.99,,,-99.99,,2013-04-25 11:08:00,
2013-04-25 04:16:00,62.0,0.0,29.86,North,361,3.0,13.0,15,-99.99,,,-99.99,,2013-04-25 11:16:00,
2013-04-25 04:24:00,61.0,0.0,29.86,North,361,3.0,12.0,16,-99.99,,,-99.99,,2013-04-25 11:24:00,
2013-04-25 04:36:00,62.0,0.0,29.86,North,356,5.0,7.0,16,-99.99,,,-99.99,,2013-04-25 11:36:00,
2013-04-25 04:44:00,62.0,0.0,29.86,NNE,17,2.0,6.0,16,-99.99,,,-99.99,,2013-04-25 11:44:00,
2013-04-25 04:52:00,62.0,0.0,29.86,North,361,2.0,6.0,16,-99.99,,,-99.99,,2013-04-25 11:52:00,
2013-04-25 05:00:00,62.0,0.0,29.86,NE,56,2.0,3.0,15,-99.99,,,-99.99,,2013-04-25 12:00:00,
2013-04-25 05:08:00,61.0,0.0,29.86,ESE,122,3.0,5.0,18,-99.99,,,-99.99,,2013-04-25 12:08:00,
2013-04-25 05:16:00,60.0,0.0,29.86,East,79,2.0,5.0,22,-99.99,,,-99.99,,2013-04-25 12:16:00,
2013-04-25 05:24:00,60.0,0.0,29.87,SE,130,1.0,5.0,22,-99.99,,,-99.99,,2013-04-25 12:24:00,
2013-04-25 05:32:00,58.0,0.0,29.87,ESE,103,0.0,2.0,24,-99.99,,,-99.99,,2013-04-25 12:32:00,
2013-04-25 05:40:00,60.0,0.0,29.87,West,261,1.0,5.0,20,-99.99,,,-99.99,,2013-04-25 12:40:00,
2013-04-25 05:48:00,59.0,0.0,29.87,WSW,256,2.0,2.0,25,-99.99,,,-99.99,,2013-04-25 12:48:00,
2013-04-25 05:56:00,59.0,0.0,29.87,SSE,162,1.0,3.0,24,-99.99,,,-99.99,,2013-04-25 12:56:00,
2013-04-25 06:04:00,59.0,0.0,29.88,SE,125,2.0,3.0,23,-99.99,,,-99.99,,2013-04-25 13:04:00,
2013-04-25 06:12:00,59.0,0.0,29.88,SE,125,3.0,3.0,23,-99.99,,,-99.99,,2013-04-25 13:12:00,
2013-04-25 06:20:00,59.0,0.0,29.88,ESE,122,2.0,5.0,23,-99.99,,,-99.99,,2013-04-25 13:20:00,
2013-04-25 06:28:00,59.0,0.0,29.89,NE,36,3.0,3.0,23,-99.99,,,-99.99,,2013-04-25 13:28:00,
2013-04-25 06:36:00,58.0,0.0,29.89,ENE,74,3.0,3.0,26,-99.99,,,-99.99,,2013-04-25 13:36:00,
2013-04-25 06:44:00,58.0,0.0,29.89,ESE,107,3.0,5.0,26,-99.99,,,-99.99,,2013-04-25 13:44:00,
2013-04-25 06:52:00,59.0,0.0,29.90,SE,133,6.0,7.0,24,-99.99,,,-99.99,,2013-04-25 13:52:00,
2013-04-25 07:00:00,59.0,0.0,29.90,SE,131,5.0,7.0,25,-99.99,,,-99.99,,2013-04-25 14:00:00,
2013-04-25 07:08:00,59.0,0.0,29.90,SE,137,5.0,10.0,29,-99.99,,,-99.99,,2013-04-25 14:08:00,
2013-04-25 07:16:00,60.0,0.0,29.91,SE,145,3.0,8.0,27,-99.99,,,-99.99,,2013-04-25 14:16:00,
2013-04-25 07:24:00,60.0,0.0,29.91,SE,130,8.0,8.0,29,-99.99,,,-99.99,,2013-04-25 14:24:00,
2013-04-25 07:32:00,58.0,0.0,29.91,SSE,148,7.0,12.0,32,-99.99,,,-99.99,,2013-04-25 14:32:00,
2013-04-25 07:40:00,58.0,0.0,29.91,SSE,161,7.0,12.0,31,-99.99,,,-99.99,,2013-04-25 14:40:00,
2013-04-25 07:48:00,59.0,0.0,29.91,SSE,162,7.0,12.0,29,-99.99,,,-99.99,,2013-04-25 14:48:00,
2013-04-25 07:56:00,59.0,0.0,29.92,South,171,8.0,13.0,30,-99.99,,,-99.99,,2013-04-25 14:56:00,
2013-04-25 08:04:00,59.0,0.0,29.93,SSW,195,9.0,13.0,31,-99.99,,,-99.99,,2013-04-25 15:04:00,
2013-04-25 08:12:00,59.0,0.0,29.93,South,174,9.0,13.0,31,-99.99,,,-99.99,,2013-04-25 15:12:00,
2013-04-25 08:20:00,60.0,0.0,29.93,South,175,8.0,13.0,31,-99.99,,,-99.99,,2013-04-25 15:20:00,
2013-04-25 08:28:00,61.0,0.0,29.93,South,182,13.0,14.0,29,-99.99,,,-99.99,,2013-04-25 15:28:00,
2013-04-25 08:36:00,61.0,0.0,29.93,South,171,13.0,14.0,29,-99.99,,,-99.99,,2013-04-25 15:36:00,
2013-04-25 08:44:00,62.0,0.0,29.94,South,172,12.0,14.0,27,-99.99,,,-99.99,,2013-04-25 15:44:00,
2013-04-25 08:52:00,63.0,0.0,29.94,South,177,12.0,15.0,27,-99.99,,,-99.99,,2013-04-25 15:52:00,
2013-04-25 09:00:00,63.0,0.0,29.95,South,185,7.0,13.0,28,-99.99,,,-99.99,,2013-04-25 16:00:00,
2013-04-25 09:08:00,64.0,0.0,29.95,SSE,161,5.0,10.0,27,-99.99,,,-99.99,,2013-04-25 16:08:00,
2013-04-25 09:16:00,65.0,0.0,29.95,South,171,5.0,12.0,26,-99.99,,,-99.99,,2013-04-25 16:16:00,
2013-04-25 09:24:00,66.0,0.0,29.95,South,169,6.0,12.0,25,-99.99,,,-99.99,,2013-04-25 16:24:00,
2013-04-25 09:32:00,67.0,0.0,29.96,SSE,165,6.0,12.0,26,-99.99,,,-99.99,,2013-04-25 16:32:00,
2013-04-25 09:40:00,67.0,0.0,29.96,SE,133,5.0,12.0,23,-99.99,,,-99.99,,2013-04-25 16:40:00,
2013-04-25 09:48:00,68.0,0.0,29.96,South,170,10.0,12.0,23,-99.99,,,-99.99,,2013-04-25 16:48:00,
2013-04-25 09:56:00,69.0,0.0,29.96,South,188,8.0,12.0,20,-99.99,,,-99.99,,2013-04-25 16:56:00,
2013-04-25 10:04:00,71.0,0.0,29.97,SE,132,5.0,9.0,19,-99.99,,,-99.99,,2013-04-25 17:04:00,
2013-04-25 10:12:00,72.0,0.0,29.97,SE,125,5.0,9.0,18,-99.99,,,-99.99,,2013-04-25 17:12:00,
2013-04-25 10:20:00,73.0,0.0,29.97,SE,139,3.0,8.0,17,-99.99,,,-99.99,,2013-04-25 17:20:00,
2013-04-25 10:28:00,63.0,0.0,27.13,North,349,16.0,20.0,14,-99.99,,,-99.99,,2013-04-25 17:28:00,
2013-04-25 10:36:00,72.0,0.0,29.97,SE,133,2.0,12.0,20,-99.99,,,-99.99,,2013-04-25 17:36:00,
2013-04-25 10:44:00,73.0,0.0,29.97,South,184,5.0,12.0,17,-99.99,,,-99.99,,2013-04-25 17:44:00,
2013-04-25 10:52:00,74.0,0.0,29.97,SSE,150,6.0,12.0,19,-99.99,,,-99.99,,2013-04-25 17:52:00,
2013-04-25 11:00:00,73.0,0.0,29.97,SSE,154,7.0,14.0,19,-99.99,,,-99.99,,2013-04-25 18:00:00,
2013-04-25 11:08:00,75.0,0.0,29.97,SSE,150,5.0,14.0,18,-99.99,,,-99.99,,2013-04-25 18:08:00,
2013-04-25 11:16:00,75.0,0.0,29.96,SE,145,7.0,16.0,17,-99.99,,,-99.99,,2013-04-25 18:16:00,
2013-04-25 11:24:00,76.0,0.0,29.96,SSE,155,7.0,17.0,16,-99.99,,,-99.99,,2013-04-25 18:24:00,
2013-04-25 11:40:00,76.0,0.0,29.96,SSE,168,9.0,14.0,16,-99.99,,,-99.99,,2013-04-25 18:40:00,
2013-04-25 11:48:00,77.0,0.0,29.95,SSE,157,8.0,14.0,16,-99.99,,,-99.99,,2013-04-25 18:48:00,
2013-04-25 11:56:00,79.0,0.0,29.95,ESE,123,7.0,15.0,16,-99.99,,,-99.99,,2013-04-25 18:56:00,
2013-04-25 12:04:00,80.0,0.0,29.95,SE,133,12.0,17.0,15,-99.99,,,-99.99,,2013-04-25 19:04:00,
2013-04-25 12:12:00,80.0,0.0,29.95,SE,125,6.0,17.0,15,-99.99,,,-99.99,,2013-04-25 19:12:00,
2013-04-25 12:20:00,80.0,0.0,29.94,South,178,15.0,17.0,16,-99.99,,,-99.99,,2013-04-25 19:20:00,
2013-04-25 12:28:00,81.0,0.0,29.94,SSE,161,5.0,17.0,14,-99.99,,,-99.99,,2013-04-25 19:28:00,
2013-04-25 12:36:00,80.0,0.0,29.94,SE,133,3.0,18.0,13,-99.99,,,-99.99,,2013-04-25 19:36:00,
2013-04-25 12:44:00,79.0,0.0,29.94,South,190,6.0,20.0,15,-99.99,,,-99.99,,2013-04-25 19:44:00,
2013-04-25 12:52:00,79.0,0.0,29.94,SSW,206,13.0,20.0,13,-99.99,,,-99.99,,2013-04-25 19:52:00,
2013-04-25 13:00:00,80.0,0.0,29.93,South,186,14.0,20.0,13,-99.99,,,-99.99,,2013-04-25 20:00:00,
2013-04-25 13:08:00,79.0,0.0,29.93,South,175,10.0,28.0,13,-99.99,,,-99.99,,2013-04-25 20:08:00,
2013-04-25 13:24:00,82.0,0.0,29.93,SSE,149,8.0,17.0,15,-99.99,,,-99.99,,2013-04-25 20:24:00,
2013-04-25 13:32:00,83.0,0.0,29.93,SE,131,9.0,18.0,12,-99.99,,,-99.99,,2013-04-25 20:32:00,
2013-04-25 13:40:00,84.0,0.0,29.93,SSE,158,8.0,17.0,12,-99.99,,,-99.99,,2013-04-25 20:40:00,
2013-04-25 13:49:00,84.0,0.0,29.93,South,173,3.0,20.0,11,-99.99,,,-99.99,,2013-04-25 20:49:00,
2013-04-25 13:56:00,85.0,0.0,29.93,East,91,7.0,14.0,11,-99.99,,,-99.99,,2013-04-25 20:56:00,
2013-04-25 14:04:00,85.0,0.0,29.93,SSE,148,12.0,12.0,12,-99.99,,,-99.99,,2013-04-25 21:04:00,
2013-04-25 14:12:00,82.0,0.0,29.92,South,191,9.0,17.0,11,-99.99,,,-99.99,,2013-04-25 21:12:00,
2013-04-25 14:20:00,84.0,0.0,29.92,ENE,67,2.0,16.0,12,-99.99,,,-99.99,,2013-04-25 21:20:00,
2013-04-25 14:28:00,86.0,0.0,29.92,East,99,5.0,14.0,12,-99.99,,,-99.99,,2013-04-25 21:28:00,
2013-04-25 14:36:00,88.0,0.0,29.92,SE,140,5.0,13.0,13,-99.99,,,-99.99,,2013-04-25 21:36:00,
2013-04-25 14:44:00,82.0,0.0,29.92,SE,136,7.0,23.0,13,-99.99,,,-99.99,,2013-04-25 21:44:00,
2013-04-25 14:52:00,83.0,0.0,29.91,WSW,256,3.0,20.0,12,-99.99,,,-99.99,,2013-04-25 21:52:00,
2013-04-25 15:00:00,83.0,0.0,29.91,SSW,196,14.0,23.0,13,-99.99,,,-99.99,,2013-04-25 22:00:00,
2013-04-25 15:08:00,86.0,0.0,29.91,SE,130,9.0,23.0,11,-99.99,,,-99.99,,2013-04-25 22:08:00,
2013-04-25 15:16:00,85.0,0.0,29.90,South,180,20.0,20.0,11,-99.99,,,-99.99,,2013-04-25 22:16:00,
2013-04-25 15:24:00,83.0,0.0,29.90,South,177,10.0,23.0,14,-99.99,,,-99.99,,2013-04-25 22:24:00,
2013-04-25 15:32:00,85.0,0.0,29.89,South,177,13.0,20.0,12,-99.99,,,-99.99,,2013-04-25 22:32:00,
2013-04-25 15:40:00,84.0,0.0,29.89,South,182,14.0,18.0,11,-99.99,,,-99.99,,2013-04-25 22:40:00,
2013-04-25 15:52:00,85.0,0.0,29.88,South,181,21.0,22.0,13,-99.99,,,-99.99,,2013-04-25 22:52:00,
2013-04-25 16:04:00,82.0,0.0,29.89,SSW,208,12.0,28.0,13,-99.99,,,-99.99,,2013-04-25 23:04:00,
2013-04-25 16:12:00,82.0,0.0,29.90,SW,233,14.0,25.0,16,-99.99,,,-99.99,,2013-04-25 23:12:00,
2013-04-25 16:20:00,82.0,0.0,29.89,SSW,206,18.0,22.0,15,-99.99,,,-99.99,,2013-04-25 23:20:00,
2013-04-25 16:28:00,82.0,0.0,29.89,SW,235,22.0,30.0,14,-99.99,,,-99.99,,2013-04-25 23:28:00,
2013-04-25 16:36:00,82.0,0.0,29.89,WSW,243,17.0,30.0,16,-99.99,,,-99.99,,2013-04-25 23:36:00,
2013-04-25 16:44:00,81.0,0.0,29.89,SW,235,9.0,21.0,18,-99.99,,,-99.99,,2013-04-25 23:44:00,
2013-04-25 16:52:00,80.0,0.0,29.89,South,186,15.0,23.0,18,-99.99,,,-99.99,,2013-04-25 23:52:00,
2013-04-25 17:00:00,82.0,0.0,29.89,South,185,17.0,23.0,16,-99.99,,,-99.99,,2013-04-26 00:00:00,
2013-04-25 17:08:00,81.0,0.0,29.89,SW,229,15.0,23.0,17,-99.99,,,-99.99,,2013-04-26 00:08:00,
2013-04-25 17:16:00,81.0,0.0,29.89,SSW,199,15.0,25.0,17,-99.99,,,-99.99,,2013-04-26 00:16:00,
2013-04-25 17:24:00,81.0,0.0,29.89,SSW,197,18.0,25.0,17,-99.99,,,-99.99,,2013-04-26 00:24:00,
2013-04-25 17:32:00,80.0,0.0,29.89,SSW,194,15.0,25.0,18,-99.99,,,-99.99,,2013-04-26 00:32:00,
2013-04-25 17:40:00,81.0,0.0,29.89,South,179,15.0,24.0,17,-99.99,,,-99.99,,2013-04-26 00:40:00,
2013-04-25 17:48:00,80.0,0.0,29.89,SW,230,16.0,30.0,20,-99.99,,,-99.99,,2013-04-26 00:48:00,
2013-04-25 17:56:00,80.0,0.0,29.89,SW,229,15.0,20.0,17,-99.99,,,-99.99,,2013-04-26 00:56:00,
2013-04-25 18:04:00,81.0,0.0,29.89,SW,228,9.0,18.0,18,-99.99,,,-99.99,,2013-04-26 01:04:00,
2013-04-25 18:12:00,80.0,0.0,29.89,SSW,206,16.0,21.0,18,-99.99,,,-99.99,,2013-04-26 01:12:00,
2013-04-25 18:20:00,80.0,0.0,29.90,WSW,255,15.0,21.0,20,-99.99,,,-99.99,,2013-04-26 01:20:00,
2013-04-25 18:28:00,79.0,0.0,29.90,WSW,244,12.0,21.0,22,-99.99,,,-99.99,,2013-04-26 01:28:00,
2013-04-25 18:36:00,79.0,0.0,29.90,West,267,15.0,21.0,22,-99.99,,,-99.99,,2013-04-26 01:36:00,
2013-04-25 18:44:00,79.0,0.0,29.89,SW,228,13.0,18.0,21,-99.99,,,-99.99,,2013-04-26 01:44:00,
2013-04-25 18:52:00,78.0,0.0,29.90,WSW,258,14.0,16.0,21,-99.99,,,-99.99,,2013-04-26 01:52:00,
2013-04-25 19:00:00,78.0,0.0,29.89,West,274,15.0,21.0,22,-99.99,,,-99.99,,2013-04-26 02:00:00,
2013-04-25 19:08:00,77.0,0.0,29.90,WSW,247,13.0,21.0,23,-99.99,,,-99.99,,2013-04-26 02:08:00,
2013-04-25 19:16:00,76.0,0.0,29.90,WSW,243,14.0,18.0,23,-99.99,,,-99.99,,2013-04-26 02:16:00,
2013-04-25 19:24:00,75.0,0.0,29.90,WSW,255,14.0,20.0,25,-99.99,,,-99.99,,2013-04-26 02:24:00,
2013-04-25 19:32:00,75.0,0.0,29.90,SW,232,9.0,18.0,24,-99.99,,,-99.99,,2013-04-26 02:32:00,
2013-04-25 19:40:00,75.0,0.0,29.90,WSW,256,13.0,18.0,23,-99.99,,,-99.99,,2013-04-26 02:40:00,
2013-04-25 19:48:00,74.0,0.0,29.90,West,262,12.0,20.0,25,-99.99,,,-99.99,,2013-04-26 02:48:00,
2013-04-25 19:56:00,74.0,0.0,29.91,West,277,14.0,21.0,26,-99.99,,,-99.99,,2013-04-26 02:56:00,
2013-04-25 20:04:00,73.0,0.0,29.91,West,277,12.0,17.0,24,-99.99,,,-99.99,,2013-04-26 03:04:00,
2013-04-25 20:12:00,74.0,0.0,29.92,WNW,285,12.0,15.0,23,-99.99,,,-99.99,,2013-04-26 03:12:00,
2013-04-25 20:20:00,73.0,0.0,29.92,West,267,12.0,16.0,26,-99.99,,,-99.99,,2013-04-26 03:20:00,
2013-04-25 20:28:00,73.0,0.0,29.93,West,264,10.0,14.0,26,-99.99,,,-99.99,,2013-04-26 03:28:00,
2013-04-25 20:36:00,73.0,0.0,29.93,West,267,9.0,15.0,22,-99.99,,,-99.99,,2013-04-26 03:36:00,
2013-04-25 20:44:00,73.0,0.0,29.93,West,266,12.0,13.0,23,-99.99,,,-99.99,,2013-04-26 03:44:00,
2013-04-25 20:52:00,72.0,0.0,29.94,West,269,9.0,13.0,24,-99.99,,,-99.99,,2013-04-26 03:52:00,
2013-04-25 21:00:00,72.0,0.0,29.94,West,278,10.0,13.0,24,-99.99,,,-99.99,,2013-04-26 04:00:00,
2013-04-25 21:04:00,72.0,0.0,29.94,West,274,10.0,13.0,23,-99.99,,,-99.99,,2013-04-26 04:04:00,
2013-04-25 21:12:00,71.0,0.0,29.95,WNW,303,7.0,15.0,24,-99.99,,,-99.99,,2013-04-26 04:12:00,
2013-04-25 21:16:00,71.0,0.0,29.95,WNW,291,12.0,15.0,24,-99.99,,,-99.99,,2013-04-26 04:16:00,
2013-04-25 21:20:00,71.0,0.0,29.95,WNW,282,12.0,13.0,23,-99.99,,,-99.99,,2013-04-26 04:20:00,
2013-04-25 21:28:00,71.0,0.0,29.96,WNW,289,9.0,13.0,23,-99.99,,,-99.99,,2013-04-26 04:28:00,
2013-04-25 21:36:00,71.0,0.0,29.96,WNW,289,8.0,13.0,23,-99.99,,,-99.99,,2013-04-26 04:36:00,
2013-04-25 21:44:00,70.0,0.0,29.96,WNW,294,6.0,12.0,24,-99.99,,,-99.99,,2013-04-26 04:44:00,
2013-04-25 21:52:00,71.0,0.0,29.97,North,361,3.0,8.0,22,-99.99,,,-99.99,,2013-04-26 04:52:00,
2013-04-25 22:00:00,70.0,0.0,29.97,NW,326,3.0,5.0,23,-99.99,,,-99.99,,2013-04-26 05:00:00,
2013-04-25 22:08:00,71.0,0.0,29.97,NW,309,2.0,3.0,23,-99.99,,,-99.99,,2013-04-26 05:08:00,
2013-04-25 22:16:00,71.0,0.0,29.98,WSW,243,3.0,3.0,24,-99.99,,,-99.99,,2013-04-26 05:16:00,
2013-04-25 22:24:00,70.0,0.0,29.98,WNW,289,5.0,5.0,23,-99.99,,,-99.99,,2013-04-26 05:24:00,
2013-04-25 22:32:00,70.0,0.0,29.98,NW,309,3.0,5.0,24,-99.99,,,-99.99,,2013-04-26 05:32:00,
2013-04-25 22:40:00,68.0,0.0,29.98,East,82,5.0,7.0,25,-99.99,,,-99.99,,2013-04-26 05:40:00,
2013-04-25 22:48:00,67.0,0.0,29.99,NE,36,2.0,7.0,27,-99.99,,,-99.99,,2013-04-26 05:48:00,
2013-04-25 22:56:00,67.0,0.0,29.99,NW,309,2.0,6.0,28,-99.99,,,-99.99,,2013-04-26 05:56:00,
2013-04-25 23:04:00,67.0,0.0,29.99,NE,45,2.0,5.0,28,-99.99,,,-99.99,,2013-04-26 06:04:00,
2013-04-25 23:12:00,66.0,0.0,29.99,NNE,16,0.0,5.0,28,-99.99,,,-99.99,,2013-04-26 06:12:00,
2013-04-25 23:20:00,66.0,0.0,29.99,NE,46,0.0,3.0,29,-99.99,,,-99.99,,2013-04-26 06:20:00,
2013-04-25 23:28:00,66.0,0.0,30.00,North,361,2.0,2.0,31,-99.99,,,-99.99,,2013-04-26 06:28:00,
2013-04-25 23:36:00,65.0,0.0,30.00,North,361,2.0,3.0,30,-99.99,,,-99.99,,2013-04-26 06:36:00,
2013-04-25 23:44:00,64.0,0.0,30.01,North,361,5.0,6.0,29,-99.99,,,-99.99,,2013-04-26 06:44:00,
2013-04-25 23:52:00,64.0,0.0,30.01,North,361,2.0,6.0,31,-99.99,,,-99.99,,2013-04-26 06:52:00,